Time;durP1;ratioP1;P1;durP2;ratioP2;P2;SDS_P1;SDS_P2;PMS_P1;PMS_P2;Temp;Humidity;BMP_temperature;BMP_pressure;BME280_temperature;BME280_humidity;BME280_pressure;Samples;Min_cycle;Max_cycle;Signal;HPM_P1;HPM_P2
2023/06/19 12:15:57;;;;;;;0.75;0.45;;;12.70;53.50;;;;;;6272494;22;20399;-69
2023/06/19 12:18:25;;;;;;;0.75;0.40;;;12.70;53.40;;;;;;6220961;22;20038;-70
2023/06/19 12:20:52;;;;;;;1.88;0.32;;;12.60;53.30;;;;;;6275301;22;20027;-70
2023/06/19 12:23:20;;;;;;;0.77;0.47;;;12.60;53.10;;;;;;6302519;22;19999;-72
2023/06/19 12:25:47;;;;;;;1.40;0.38;;;12.60;53.10;;;;;;6303701;22;20057;-69
2023/06/19 12:28:18;;;;;;;0.43;0.40;;;12.60;53.20;;;;;;6275846;22;19999;-74
2023/06/19 12:30:45;;;;;;;;;;;12.50;52.90;;;;;;6301760;22;19999;-73
2023/06/19 12:33:12;;;;;;;0.30;0.30;;;12.40;53.00;;;;;;6302787;22;20317;-74
2023/06/19 12:35:41;;;;;;;0.35;0.35;;;12.50;53.20;;;;;;6276578;22;19999;-74
2023/06/19 12:38:09;;;;;;;0.45;0.45;;;12.40;53.20;;;;;;6276971;22;20007;-70
2023/06/19 12:40:37;;;;;;;0.85;0.45;;;12.40;53.40;;;;;;6274804;22;20009;-71
2023/06/19 12:43:05;;;;;;;1.42;0.50;;;12.40;53.50;;;;;;6303628;22;20053;-71
2023/06/19 12:45:32;;;;;;;1.48;0.60;;;12.40;53.70;;;;;;6303426;22;20407;-72
2023/06/19 12:48:00;;;;;;;0.77;0.57;;;12.30;53.80;;;;;;6276704;22;20437;-72
2023/06/19 12:50:27;;;;;;;0.32;0.32;;;12.30;53.90;;;;;;6279778;22;20010;-71
2023/06/19 12:52:55;;;;;;;0.40;0.40;;;12.20;54.00;;;;;;6279755;22;20007;-73
2023/06/19 12:55:22;;;;;;;0.70;0.40;;;12.30;54.00;;;;;;6306860;22;19996;-72
2023/06/19 12:57:50;;;;;;;1.08;0.50;;;12.20;54.00;;;;;;6306728;22;20315;-73
2023/06/19 13:00:17;;;;;;;1.67;0.63;;;12.20;54.30;;;;;;6305288;22;20063;-73
2023/06/19 13:02:46;;;;;;;0.50;0.43;;;12.20;54.30;;;;;;6306948;22;20073;-73
2023/06/19 13:05:13;;;;;;;1.05;0.60;;;12.20;54.40;;;;;;6306384;22;19999;-73
2023/06/19 13:07:41;;;;;;;0.60;0.60;;;12.20;54.60;;;;;;6305078;22;20377;-72
2023/06/19 13:10:08;;;;;;;0.52;0.50;;;12.10;54.80;;;;;;6306748;22;20438;-73
2023/06/19 13:12:36;;;;;;;2.80;0.80;;;12.10;54.90;;;;;;6305696;22;20019;-72
2023/06/19 13:15:03;;;;;;;0.90;0.52;;;12.10;55.00;;;;;;6278286;22;20094;-73
2023/06/19 13:17:31;;;;;;;0.65;0.60;;;12.00;55.10;;;;;;6252555;22;20008;-72
2023/06/19 13:19:59;;;;;;;0.77;0.57;;;12.00;54.90;;;;;;6279389;22;20453;-73
2023/06/19 13:22:26;;;;;;;1.35;0.93;;;12.00;54.90;;;;;;6306834;22;20010;-72
2023/06/19 13:24:53;;;;;;;0.60;0.60;;;12.00;54.90;;;;;;6306364;22;20084;-71
2023/06/19 13:27:21;;;;;;;3.65;0.60;;;12.00;55.10;;;;;;6305623;22;20002;-71
2023/06/19 13:29:48;;;;;;;1.02;0.40;;;12.00;54.70;;;;;;6307370;22;20078;-71
2023/06/19 13:32:16;;;;;;;0.65;0.50;;;11.90;54.90;;;;;;6279570;22;20066;-72
2023/06/19 13:34:43;;;;;;;1.00;0.50;;;11.90;54.70;;;;;;6279056;22;20000;-72
2023/06/19 13:37:11;;;;;;;1.67;0.47;;;11.90;54.80;;;;;;6305973;22;20023;-72
2023/06/19 13:39:39;;;;;;;0.82;0.50;;;11.90;54.90;;;;;;6305839;22;20003;-72
2023/06/19 13:42:07;;;;;;;0.32;0.30;;;11.80;55.00;;;;;;6279368;22;20003;-72
2023/06/19 16:34:09;;;;;;;0.85;0.60;;;10.30;54.70;;;;;;6305225;22;20085;-72
2023/06/19 16:36:37;;;;;;;2.88;0.70;;;10.40;54.50;;;;;;6280195;22;19996;-72
2023/06/19 16:39:04;;;;;;;2.10;1.08;;;10.40;54.60;;;;;;6278810;22;20003;-71
2023/06/19 16:41:31;;;;;;;1.60;0.70;;;10.40;54.60;;;;;;6307051;22;20368;-72
2023/06/19 16:43:59;;;;;;;1.08;0.52;;;10.30;54.40;;;;;;6254348;22;20023;-71
2023/06/19 16:46:26;;;;;;;0.60;0.32;;;10.40;54.30;;;;;;6306747;22;20117;-71
2023/06/19 16:48:54;;;;;;;2.55;0.60;;;10.40;54.40;;;;;;6306125;22;20733;-71
2023/06/19 16:51:21;;;;;;;3.33;0.60;;;10.30;54.40;;;;;;6306726;22;20375;-71
2023/06/19 16:53:49;;;;;;;1.00;0.57;;;10.40;54.40;;;;;;6306562;22;20011;-72
2023/06/19 16:56:16;;;;;;;2.60;0.75;;;10.40;54.20;;;;;;6307105;22;20003;-72
2023/06/19 16:58:44;;;;;;;2.55;0.50;;;10.30;54.60;;;;;;6278828;22;20003;-72
2023/06/19 17:01:12;;;;;;;3.30;0.73;;;10.30;54.50;;;;;;6306709;22;19996;-72
2023/06/19 17:03:40;;;;;;;0.55;0.45;;;10.30;54.80;;;;;;6307323;22;20330;-71
2023/06/19 17:06:07;;;;;;;1.73;0.50;;;10.30;54.80;;;;;;6279972;22;20430;-71
2023/06/19 17:08:34;;;;;;;0.73;0.60;;;10.30;55.00;;;;;;6306534;22;20003;-72
2023/06/19 17:11:02;;;;;;;0.30;0.30;;;10.30;55.40;;;;;;6279918;22;20014;-71
2023/06/19 17:13:29;;;;;;;1.05;0.57;;;10.20;55.50;;;;;;6306108;22;20014;-71
2023/06/19 17:15:57;;;;;;;1.00;0.47;;;10.20;55.40;;;;;;6306120;22;20019;-72
2023/06/19 17:18:24;;;;;;;1.48;0.60;;;10.20;55.80;;;;;;6306522;22;20026;-71
2023/06/19 17:20:51;;;;;;;0.95;0.55;;;10.20;55.50;;;;;;6306758;22;19996;-72
2023/06/19 17:23:19;;;;;;;1.95;0.55;;;10.20;55.50;;;;;;6306671;22;20003;-72
2023/06/19 17:25:46;;;;;;;1.50;0.50;;;10.20;55.40;;;;;;6279598;22;20007;-74
2023/06/19 17:28:14;;;;;;;2.17;0.70;;;10.20;55.50;;;;;;6306849;22;20023;-71
2023/06/19 17:30:42;;;;;;;0.77;0.40;;;10.20;55.70;;;;;;6307253;22;20434;-71
2023/06/19 17:33:10;;;;;;;1.80;0.63;;;10.20;55.50;;;;;;6305874;22;20458;-72
2023/06/19 17:35:37;;;;;;;2.20;0.82;;;10.10;55.80;;;;;;6279544;22;19995;-72
2023/06/19 17:38:05;;;;;;;1.92;0.68;;;10.10;55.90;;;;;;6306450;22;20056;-72
2023/06/19 17:40:32;;;;;;;2.30;0.60;;;10.10;56.00;;;;;;6279252;22;20078;-71
2023/06/19 17:43:00;;;;;;;6.35;0.70;;;10.10;56.10;;;;;;6279356;22;20422;-71
2023/06/19 17:45:27;;;;;;;1.52;0.70;;;10.10;56.30;;;;;;6306171;22;19999;-71
2023/06/19 17:47:54;;;;;;;1.00;0.60;;;10.10;56.40;;;;;;6306615;22;20031;-74
2023/06/19 17:50:22;;;;;;;0.65;0.40;;;10.00;56.70;;;;;;6305946;22;20030;-71
2023/06/19 17:52:49;;;;;;;2.50;0.70;;;10.00;57.10;;;;;;6277931;22;20019;-71
2023/06/19 17:55:17;;;;;;;0.88;0.60;;;9.90;57.00;;;;;;6305654;22;20418;-71
2023/06/19 17:57:44;;;;;;;1.17;0.73;;;9.90;57.40;;;;;;6306293;22;20033;-72
2023/06/19 18:00:12;;;;;;;0.70;0.60;;;9.90;57.80;;;;;;6278881;22;20494;-71
2023/06/19 21:56:46;;;;;;;3.03;1.10;;;8.80;61.60;;;;;;6298225;22;20029;-70
2023/06/19 21:59:14;;;;;;;6.30;0.88;;;8.80;61.40;;;;;;6247619;22;20086;-69
2023/06/19 22:01:41;;;;;;;4.97;0.98;;;8.80;61.60;;;;;;6246635;22;19999;-70
2023/06/19 22:04:12;;;;;;;1.67;1.00;;;8.80;61.40;;;;;;6246047;22;20339;-70
2023/06/19 22:06:39;;;;;;;9.07;1.20;;;8.90;61.20;;;;;;6274328;22;20431;-70
2023/06/19 22:09:07;;;;;;;7.15;1.42;;;8.90;61.30;;;;;;6248060;22;20075;-70
2023/06/19 22:11:34;;;;;;;2.05;1.00;;;9.00;61.40;;;;;;6272422;22;20439;-70
2023/06/19 22:14:01;;;;;;;3.28;1.35;;;9.00;61.30;;;;;;6247535;22;20012;-69
2023/06/19 22:16:29;;;;;;;4.03;1.17;;;9.00;61.40;;;;;;6274866;22;20000;-71
2023/06/19 22:19:00;;;;;;;6.50;1.20;;;9.10;61.30;;;;;;6272004;22;20042;-70
2023/06/19 22:21:28;;;;;;;2.92;1.05;;;9.10;61.20;;;;;;6271584;22;20400;-71
2023/06/19 22:23:56;;;;;;;4.13;1.40;;;9.10;61.30;;;;;;6270124;22;20494;-68
2023/06/19 22:26:23;;;;;;;5.13;1.38;;;9.10;61.40;;;;;;6271183;22;20004;-71
2023/06/19 22:28:50;;;;;;;8.68;1.25;;;9.20;60.90;;;;;;6241691;22;20086;-69
2023/06/19 22:31:18;;;;;;;2.63;1.30;;;9.20;60.90;;;;;;6269150;22;20021;-69
2023/06/19 22:33:45;;;;;;;5.28;1.30;;;9.20;60.30;;;;;;6271443;22;20014;-68
2023/06/19 22:36:14;;;;;;;7.60;1.40;;;9.20;60.50;;;;;;6271655;22;20010;-68
2023/06/19 22:38:41;;;;;;;3.47;1.00;;;9.30;60.10;;;;;;6219464;22;20198;-68
2023/06/19 22:41:09;;;;;;;4.63;1.02;;;9.30;60.20;;;;;;6244858;22;20007;-70
2023/06/19 22:43:36;;;;;;;3.90;1.23;;;9.40;59.90;;;;;;6270474;22;20434;-68
2023/06/19 22:46:07;;;;;;;2.08;1.10;;;9.40;59.80;;;;;;6268520;22;20039;-68
2023/06/19 22:48:36;;;;;;;9.93;1.30;;;9.40;59.80;;;;;;6244378;22;20030;-69
2023/06/19 22:51:03;;;;;;;2.22;1.23;;;9.40;59.70;;;;;;6271259;22;20004;-68
2023/06/19 22:53:31;;;;;;;3.85;1.20;;;9.50;59.40;;;;;;6271809;22;20324;-68
2023/06/19 22:55:58;;;;;;;5.03;1.30;;;9.50;59.40;;;;;;6271190;22;20438;-68
2023/06/19 22:58:25;;;;;;;7.75;1.40;;;9.60;59.30;;;;;;6294505;22;20027;-68
2023/06/19 23:00:53;;;;;;;2.58;1.25;;;9.60;59.10;;;;;;6249099;22;20429;-68
2023/06/19 23:03:21;;;;;;;1.92;0.95;;;9.70;59.30;;;;;;6248882;22;19999;-68
2023/06/19 23:05:48;;;;;;;4.97;1.10;;;9.70;58.80;;;;;;6301552;22;20434;-68
2023/06/19 23:08:16;;;;;;;7.65;1.42;;;9.70;58.30;;;;;;6302768;22;20003;-69
2023/06/19 23:10:43;;;;;;;2.55;1.00;;;9.70;58.40;;;;;;6304686;22;19999;-69
2023/06/19 23:13:10;;;;;;;3.83;1.33;;;9.80;58.70;;;;;;6276785;22;20019;-71
2023/06/19 23:15:38;;;;;;;1.23;1.00;;;9.80;58.50;;;;;;6303975;22;19999;-71
2023/06/19 23:18:06;;;;;;;4.43;1.00;;;9.80;58.00;;;;;;6303979;22;20417;-70
2023/06/19 23:20:34;;;;;;;4.22;0.88;;;9.90;57.50;;;;;;6276530;22;20331;-71
2023/06/19 23:23:04;;;;;;;1.63;0.90;;;9.90;57.20;;;;;;6303962;22;20087;-70
2023/06/19 23:25:33;;;;;;;;;;;10.00;56.80;;;;;;6304302;22;20406;-70
2023/06/19 23:28:01;;;;;;;8.75;1.23;;;10.00;55.70;;;;;;6307018;22;19905;-70
2023/06/19 23:30:28;;;;;;;4.20;0.98;;;10.10;55.40;;;;;;6307161;22;19999;-70
2023/06/19 23:32:55;;;;;;;3.75;1.13;;;10.10;55.10;;;;;;6307173;22;20012;-71
2023/06/19 23:35:24;;;;;;;5.65;0.93;;;10.10;55.00;;;;;;6307653;22;19999;-71
2023/06/19 23:37:51;;;;;;;5.30;0.80;;;10.20;54.90;;;;;;6307209;22;20078;-70
2023/06/19 23:40:19;;;;;;;1.35;0.75;;;10.20;54.60;;;;;;6306535;22;20018;-71
2023/06/19 23:42:46;;;;;;;1.15;0.60;;;10.20;54.60;;;;;;6307215;22;20061;-71
2023/06/19 23:45:14;;;;;;;6.72;1.00;;;10.20;54.00;;;;;;6280186;22;20125;-71
2023/06/19 23:47:41;;;;;;;2.22;0.75;;;10.30;54.10;;;;;;6307511;22;19999;-71
2023/06/19 23:50:09;;;;;;;2.63;0.70;;;10.30;54.00;;;;;;6307438;22;20367;-71
2023/06/19 23:52:36;;;;;;;4.47;0.95;;;10.30;54.00;;;;;;6280774;22;20007;-72
2023/06/19 23:55:04;;;;;;;5.25;0.88;;;10.40;53.40;;;;;;6280073;22;20334;-72
2023/06/19 23:57:32;;;;;;;2.08;0.80;;;10.40;53.20;;;;;;6306689;22;20022;-72
2023/06/19 23:59:59;;;;;;;3.53;0.82;;;10.40;53.40;;;;;;6307852;22;20330;-71
